sensor_id;sensor_type;location;lat;lon;timestamp;pressure;altitude;pressure_sealevel;temperature;humidity
9187;BME280;7273;48.902;9.410;2023-08-21T00:01:32;98507.06;;;25.00;66.25
9187;BME280;7273;48.902;9.410;2023-08-21T00:03:58;98499.13;;;24.99;66.21
9187;BME280;7273;48.902;9.410;2023-08-21T00:06:23;98501.88;;;24.99;66.27
9187;BME280;7273;48.902;9.410;2023-08-21T00:08:49;98502.63;;;24.96;66.13
9187;BME280;7273;48.902;9.410;2023-08-21T00:11:15;98502.94;;;24.94;66.53
9187;BME280;7273;48.902;9.410;2023-08-21T00:13:41;98506.06;;;24.93;66.27
9187;BME280;7273;48.902;9.410;2023-08-21T00:16:10;98502.88;;;24.91;66.47
9187;BME280;7273;48.902;9.410;2023-08-21T00:18:37;98511.56;;;24.89;66.43
9187;BME280;7273;48.902;9.410;2023-08-21T00:21:02;98514.59;;;24.84;66.55
9187;BME280;7273;48.902;9.410;2023-08-21T00:23:28;98502.72;;;24.84;66.45
9187;BME280;7273;48.902;9.410;2023-08-21T00:25:54;98505.47;;;24.84;66.67
9187;BME280;7273;48.902;9.410;2023-08-21T00:28:19;98507.28;;;24.76;67.02
9187;BME280;7273;48.902;9.410;2023-08-21T00:30:45;98499.59;;;24.70;67.11
9187;BME280;7273;48.902;9.410;2023-08-21T00:33:11;98499.94;;;24.68;67.04
9187;BME280;7273;48.902;9.410;2023-08-21T00:35:36;98510.31;;;24.71;67.27
9187;BME280;7273;48.902;9.410;2023-08-21T00:38:02;98503.53;;;24.69;67.13
9187;BME280;7273;48.902;9.410;2023-08-21T00:40:28;98507.91;;;24.70;67.38
9187;BME280;7273;48.902;9.410;2023-08-21T00:42:53;98501.94;;;24.68;67.34
9187;BME280;7273;48.902;9.410;2023-08-21T00:45:19;98505.75;;;24.63;67.50
9187;BME280;7273;48.902;9.410;2023-08-21T00:47:45;98507.59;;;24.59;67.79
9187;BME280;7273;48.902;9.410;2023-08-21T00:50:12;98494.03;;;24.54;67.73
9187;BME280;7273;48.902;9.410;2023-08-21T00:52:43;98497.97;;;24.53;68.16
9187;BME280;7273;48.902;9.410;2023-08-21T00:55:10;98489.69;;;24.53;67.87
9187;BME280;7273;48.902;9.410;2023-08-21T00:57:37;98494.75;;;24.51;67.82
9187;BME280;7273;48.902;9.410;2023-08-21T01:00:04;98488.69;;;24.46;68.01
9187;BME280;7273;48.902;9.410;2023-08-21T01:02:30;98484.47;;;24.36;68.34
9187;BME280;7273;48.902;9.410;2023-08-21T01:04:56;98494.72;;;24.36;68.30
9187;BME280;7273;48.902;9.410;2023-08-21T01:07:21;98496.72;;;24.35;68.37
9187;BME280;7273;48.902;9.410;2023-08-21T01:10:09;98496.88;;;24.42;68.38
9187;BME280;7273;48.902;9.410;2023-08-21T01:12:56;98495.75;;;24.43;69.01
9187;BME280;7273;48.902;9.410;2023-08-21T01:15:28;98490.13;;;24.40;68.30
9187;BME280;7273;48.902;9.410;2023-08-21T01:17:54;98489.03;;;24.29;68.48
9187;BME280;7273;48.902;9.410;2023-08-21T01:20:20;98491.41;;;24.15;68.94
9187;BME280;7273;48.902;9.410;2023-08-21T01:22:46;98485.25;;;24.06;69.34
9187;BME280;7273;48.902;9.410;2023-08-21T01:25:12;98495.97;;;23.95;69.64
9187;BME280;7273;48.902;9.410;2023-08-21T01:27:39;98491.06;;;23.88;69.59
9187;BME280;7273;48.902;9.410;2023-08-21T01:30:05;98491.78;;;23.85;73.35
9187;BME280;7273;48.902;9.410;2023-08-21T01:33:00;98497.09;;;23.78;70.58
9187;BME280;7273;48.902;9.410;2023-08-21T01:35:30;98501.91;;;23.81;69.21
9187;BME280;7273;48.902;9.410;2023-08-21T01:37:57;98498.13;;;23.86;69.09
9187;BME280;7273;48.902;9.410;2023-08-21T01:40:23;98498.13;;;23.86;69.19
9187;BME280;7273;48.902;9.410;2023-08-21T01:42:49;98493.63;;;23.81;69.20
9187;BME280;7273;48.902;9.410;2023-08-21T01:45:15;98489.16;;;23.77;69.23
9187;BME280;7273;48.902;9.410;2023-08-21T01:47:40;98487.47;;;23.72;69.57
9187;BME280;7273;48.902;9.410;2023-08-21T01:50:06;98489.31;;;23.68;69.65
9187;BME280;7273;48.902;9.410;2023-08-21T01:52:32;98479.69;;;23.62;69.72
9187;BME280;7273;48.902;9.410;2023-08-21T01:54:57;98484.66;;;23.57;69.93
9187;BME280;7273;48.902;9.410;2023-08-21T01:57:23;98487.66;;;23.52;70.10
9187;BME280;7273;48.902;9.410;2023-08-21T01:59:48;98480.97;;;23.53;69.98
9187;BME280;7273;48.902;9.410;2023-08-21T02:02:14;98487.56;;;23.48;69.91
9187;BME280;7273;48.902;9.410;2023-08-21T02:04:39;98485.81;;;23.44;70.08
9187;BME280;7273;48.902;9.410;2023-08-21T02:07:04;98491.69;;;23.42;70.21
9187;BME280;7273;48.902;9.410;2023-08-21T02:09:30;98485.41;;;23.42;70.19
9187;BME280;7273;48.902;9.410;2023-08-21T02:11:55;98483.88;;;23.44;69.96
9187;BME280;7273;48.902;9.410;2023-08-21T02:14:21;98483.06;;;23.44;70.12
9187;BME280;7273;48.902;9.410;2023-08-21T02:16:47;98481.13;;;23.44;70.03
9187;BME280;7273;48.902;9.410;2023-08-21T02:19:13;98479.41;;;23.40;70.00
9187;BME280;7273;48.902;9.410;2023-08-21T02:21:38;98479.31;;;23.36;70.35
9187;BME280;7273;48.902;9.410;2023-08-21T02:24:04;98481.59;;;23.34;70.51
9187;BME280;7273;48.902;9.410;2023-08-21T02:26:29;98486.00;;;23.35;70.45
9187;BME280;7273;48.902;9.410;2023-08-21T02:28:54;98485.28;;;23.38;70.32
9187;BME280;7273;48.902;9.410;2023-08-21T02:31:20;98494.28;;;23.35;70.56
9187;BME280;7273;48.902;9.410;2023-08-21T02:33:45;98490.25;;;23.33;70.51
9187;BME280;7273;48.902;9.410;2023-08-21T02:36:11;98492.88;;;23.29;70.57
9187;BME280;7273;48.902;9.410;2023-08-21T02:38:36;98482.66;;;23.30;70.49
9187;BME280;7273;48.902;9.410;2023-08-21T02:41:01;98484.97;;;23.28;70.57
9187;BME280;7273;48.902;9.410;2023-08-21T02:43:27;98488.38;;;23.25;70.79
9187;BME280;7273;48.902;9.410;2023-08-21T02:45:52;98486.31;;;23.22;70.79
9187;BME280;7273;48.902;9.410;2023-08-21T02:48:17;98479.88;;;23.18;70.81
9187;BME280;7273;48.902;9.410;2023-08-21T02:50:43;98485.41;;;23.18;70.95
9187;BME280;7273;48.902;9.410;2023-08-21T02:53:08;98484.16;;;23.15;70.85
9187;BME280;7273;48.902;9.410;2023-08-21T02:55:34;98484.03;;;23.12;70.91
9187;BME280;7273;48.902;9.410;2023-08-21T02:57:59;98485.56;;;23.09;70.99
9187;BME280;7273;48.902;9.410;2023-08-21T03:00:25;98498.09;;;23.07;71.08
9187;BME280;7273;48.902;9.410;2023-08-21T03:02:50;98502.34;;;23.04;71.26
9187;BME280;7273;48.902;9.410;2023-08-21T03:05:16;98500.28;;;23.01;71.26
9187;BME280;7273;48.902;9.410;2023-08-21T03:07:41;98494.91;;;22.93;71.45
9187;BME280;7273;48.902;9.410;2023-08-21T03:10:07;98499.94;;;22.91;71.65
9187;BME280;7273;48.902;9.410;2023-08-21T03:12:33;98501.78;;;22.87;71.64
9187;BME280;7273;48.902;9.410;2023-08-21T03:14:59;98501.91;;;22.78;71.93
9187;BME280;7273;48.902;9.410;2023-08-21T03:17:25;98495.00;;;22.72;72.18
9187;BME280;7273;48.902;9.410;2023-08-21T03:19:50;98505.25;;;22.72;72.31
9187;BME280;7273;48.902;9.410;2023-08-21T03:22:16;98499.97;;;22.67;72.33
9187;BME280;7273;48.902;9.410;2023-08-21T03:24:41;98501.91;;;22.66;72.40
9187;BME280;7273;48.902;9.410;2023-08-21T03:27:07;98499.38;;;22.61;72.59
9187;BME280;7273;48.902;9.410;2023-08-21T03:29:32;98495.44;;;22.62;72.61
9187;BME280;7273;48.902;9.410;2023-08-21T03:31:58;98502.59;;;22.63;72.54
9187;BME280;7273;48.902;9.410;2023-08-21T03:34:24;98510.06;;;22.63;72.36
9187;BME280;7273;48.902;9.410;2023-08-21T03:36:49;98502.59;;;22.63;72.47
9187;BME280;7273;48.902;9.410;2023-08-21T03:39:15;98504.19;;;22.64;72.47
9187;BME280;7273;48.902;9.410;2023-08-21T03:41:40;98505.00;;;22.65;72.49
9187;BME280;7273;48.902;9.410;2023-08-21T03:44:05;98504.41;;;22.59;72.71
9187;BME280;7273;48.902;9.410;2023-08-21T03:46:31;98500.88;;;22.58;72.75
9187;BME280;7273;48.902;9.410;2023-08-21T03:48:56;98503.97;;;22.57;72.70
9187;BME280;7273;48.902;9.410;2023-08-21T03:51:22;98504.75;;;22.57;72.82
9187;BME280;7273;48.902;9.410;2023-08-21T03:53:47;98507.53;;;22.57;72.67
9187;BME280;7273;48.902;9.410;2023-08-21T03:56:12;98499.25;;;22.57;72.71
9187;BME280;7273;48.902;9.410;2023-08-21T03:58:38;98506.28;;;22.55;72.81
9187;BME280;7273;48.902;9.410;2023-08-21T04:01:03;98511.31;;;22.53;72.87
9187;BME280;7273;48.902;9.410;2023-08-21T04:03:29;98517.16;;;22.51;72.85
9187;BME280;7273;48.902;9.410;2023-08-21T04:05:54;98515.56;;;22.50;72.87
9187;BME280;7273;48.902;9.410;2023-08-21T04:08:21;98513.25;;;22.52;72.83
9187;BME280;7273;48.902;9.410;2023-08-21T04:10:47;98519.78;;;22.48;72.99
9187;BME280;7273;48.902;9.410;2023-08-21T04:13:12;98524.69;;;22.42;73.15
9187;BME280;7273;48.902;9.410;2023-08-21T04:15:38;98527.03;;;22.40;73.26
9187;BME280;7273;48.902;9.410;2023-08-21T04:18:04;98521.94;;;22.42;73.27
9187;BME280;7273;48.902;9.410;2023-08-21T04:20:29;98523.78;;;22.38;73.16
9187;BME280;7273;48.902;9.410;2023-08-21T04:22:55;98520.22;;;22.38;73.23
9187;BME280;7273;48.902;9.410;2023-08-21T04:25:20;98526.09;;;22.36;73.32
9187;BME280;7273;48.902;9.410;2023-08-21T04:27:45;98537.09;;;22.36;73.38
9187;BME280;7273;48.902;9.410;2023-08-21T04:30:11;98535.84;;;22.34;73.37
9187;BME280;7273;48.902;9.410;2023-08-21T04:32:37;98539.72;;;22.33;73.41
9187;BME280;7273;48.902;9.410;2023-08-21T04:35:03;98541.03;;;22.35;73.44
9187;BME280;7273;48.902;9.410;2023-08-21T04:37:28;98542.16;;;22.34;73.56
9187;BME280;7273;48.902;9.410;2023-08-21T04:39:54;98542.63;;;22.36;73.60
9187;BME280;7273;48.902;9.410;2023-08-21T04:42:20;98540.47;;;22.42;73.46
9187;BME280;7273;48.902;9.410;2023-08-21T04:44:45;98536.50;;;22.31;73.65
9187;BME280;7273;48.902;9.410;2023-08-21T04:47:24;98535.59;;;22.27;74.43
9187;BME280;7273;48.902;9.410;2023-08-21T04:49:53;98540.84;;;22.20;74.10
9187;BME280;7273;48.902;9.410;2023-08-21T04:52:20;98537.88;;;22.13;74.36
9187;BME280;7273;48.902;9.410;2023-08-21T04:54:49;98530.47;;;22.05;74.45
9187;BME280;7273;48.902;9.410;2023-08-21T04:57:15;98540.44;;;21.97;74.75
9187;BME280;7273;48.902;9.410;2023-08-21T04:59:41;98537.69;;;21.97;74.59
9187;BME280;7273;48.902;9.410;2023-08-21T05:02:07;98541.25;;;21.98;74.60
9187;BME280;7273;48.902;9.410;2023-08-21T05:04:32;98538.16;;;21.99;74.69
9187;BME280;7273;48.902;9.410;2023-08-21T05:06:58;98541.03;;;22.03;74.67
9187;BME280;7273;48.902;9.410;2023-08-21T05:09:23;98549.31;;;22.03;74.61
9187;BME280;7273;48.902;9.410;2023-08-21T05:11:49;98546.69;;;22.06;74.63
9187;BME280;7273;48.902;9.410;2023-08-21T05:14:14;98546.34;;;22.08;74.58
9187;BME280;7273;48.902;9.410;2023-08-21T05:16:39;98543.25;;;22.09;74.58
9187;BME280;7273;48.902;9.410;2023-08-21T05:19:05;98547.72;;;22.14;74.52
9187;BME280;7273;48.902;9.410;2023-08-21T05:21:30;98547.88;;;22.17;74.58
9187;BME280;7273;48.902;9.410;2023-08-21T05:23:56;98546.03;;;22.21;74.48
9187;BME280;7273;48.902;9.410;2023-08-21T05:26:21;98545.81;;;22.26;74.68
9187;BME280;7273;48.902;9.410;2023-08-21T05:28:47;98556.75;;;22.35;74.46
9187;BME280;7273;48.902;9.410;2023-08-21T05:31:12;98558.59;;;22.43;74.33
9187;BME280;7273;48.902;9.410;2023-08-21T05:33:37;98558.66;;;22.55;74.33
9187;BME280;7273;48.902;9.410;2023-08-21T05:36:04;98554.66;;;22.65;74.21
9187;BME280;7273;48.902;9.410;2023-08-21T05:38:30;98560.84;;;22.74;74.19
9187;BME280;7273;48.902;9.410;2023-08-21T05:40:56;98555.34;;;22.86;73.97
9187;BME280;7273;48.902;9.410;2023-08-21T05:43:21;98557.31;;;22.97;73.86
9187;BME280;7273;48.902;9.410;2023-08-21T05:45:47;98562.72;;;23.06;73.81
9187;BME280;7273;48.902;9.410;2023-08-21T05:48:13;98564.19;;;23.15;73.70
9187;BME280;7273;48.902;9.410;2023-08-21T05:50:38;98571.94;;;23.34;73.53
9187;BME280;7273;48.902;9.410;2023-08-21T05:53:04;98570.06;;;23.50;73.01
9187;BME280;7273;48.902;9.410;2023-08-21T05:55:33;98568.63;;;23.68;72.84
9187;BME280;7273;48.902;9.410;2023-08-21T05:57:58;98572.91;;;23.93;76.27
9187;BME280;7273;48.902;9.410;2023-08-21T06:00:24;98569.63;;;24.15;72.12
9187;BME280;7273;48.902;9.410;2023-08-21T06:02:49;98572.91;;;24.48;73.04
9187;BME280;7273;48.902;9.410;2023-08-21T06:05:15;98569.75;;;24.93;74.44
9187;BME280;7273;48.902;9.410;2023-08-21T06:07:41;98575.19;;;25.36;75.76
9187;BME280;7273;48.902;9.410;2023-08-21T06:10:07;98571.22;;;25.72;76.37
9187;BME280;7273;48.902;9.410;2023-08-21T06:12:33;98575.88;;;26.02;77.62
9187;BME280;7273;48.902;9.410;2023-08-21T06:14:59;98578.69;;;26.44;77.56
9187;BME280;7273;48.902;9.410;2023-08-21T06:17:24;98572.78;;;26.68;77.72
9187;BME280;7273;48.902;9.410;2023-08-21T06:19:49;98581.69;;;26.77;78.29
9187;BME280;7273;48.902;9.410;2023-08-21T06:22:15;98582.56;;;27.04;78.18
9187;BME280;7273;48.902;9.410;2023-08-21T06:24:40;98582.94;;;27.02;79.44
9187;BME280;7273;48.902;9.410;2023-08-21T06:27:06;98593.03;;;27.14;79.97
9187;BME280;7273;48.902;9.410;2023-08-21T06:29:32;98584.59;;;27.29;79.69
9187;BME280;7273;48.902;9.410;2023-08-21T06:31:57;98590.56;;;27.31;79.46
9187;BME280;7273;48.902;9.410;2023-08-21T06:34:23;98593.47;;;27.64;77.58
9187;BME280;7273;48.902;9.410;2023-08-21T06:36:48;98593.59;;;27.75;75.55
9187;BME280;7273;48.902;9.410;2023-08-21T06:39:13;98593.34;;;27.57;74.31
9187;BME280;7273;48.902;9.410;2023-08-21T06:41:39;98594.38;;;27.46;73.45
9187;BME280;7273;48.902;9.410;2023-08-21T06:44:04;98596.13;;;27.31;72.86
9187;BME280;7273;48.902;9.410;2023-08-21T06:46:30;98596.22;;;27.16;72.11
9187;BME280;7273;48.902;9.410;2023-08-21T06:48:55;98597.44;;;26.92;72.09
9187;BME280;7273;48.902;9.410;2023-08-21T06:51:20;98604.81;;;26.85;71.63
9187;BME280;7273;48.902;9.410;2023-08-21T06:53:46;98595.94;;;26.57;72.24
9187;BME280;7273;48.902;9.410;2023-08-21T06:56:12;98594.69;;;26.31;72.12
9187;BME280;7273;48.902;9.410;2023-08-21T06:58:37;98599.28;;;26.24;71.74
9187;BME280;7273;48.902;9.410;2023-08-21T07:01:03;98593.09;;;26.11;71.71
9187;BME280;7273;48.902;9.410;2023-08-21T07:03:28;98593.56;;;25.98;72.03
9187;BME280;7273;48.902;9.410;2023-08-21T07:05:55;98595.56;;;25.97;71.33
9187;BME280;7273;48.902;9.410;2023-08-21T07:08:24;98597.44;;;25.93;71.29
9187;BME280;7273;48.902;9.410;2023-08-21T07:10:50;98590.16;;;26.04;70.79
9187;BME280;7273;48.902;9.410;2023-08-21T07:13:16;98599.22;;;26.01;70.72
9187;BME280;7273;48.902;9.410;2023-08-21T07:15:41;98595.78;;;26.08;70.42
9187;BME280;7273;48.902;9.410;2023-08-21T07:18:07;98591.38;;;25.88;71.09
9187;BME280;7273;48.902;9.410;2023-08-21T07:20:33;98601.75;;;25.91;70.58
9187;BME280;7273;48.902;9.410;2023-08-21T07:22:59;98597.88;;;25.95;70.45
9187;BME280;7273;48.902;9.410;2023-08-21T07:25:24;98594.38;;;25.98;70.85
9187;BME280;7273;48.902;9.410;2023-08-21T07:27:51;98603.06;;;25.97;70.72
9187;BME280;7273;48.902;9.410;2023-08-21T07:30:18;98604.41;;;26.03;70.56
9187;BME280;7273;48.902;9.410;2023-08-21T07:32:45;98608.78;;;26.04;70.74
9187;BME280;7273;48.902;9.410;2023-08-21T07:35:11;98604.56;;;26.10;70.64
9187;BME280;7273;48.902;9.410;2023-08-21T07:37:36;98603.81;;;26.13;70.48
9187;BME280;7273;48.902;9.410;2023-08-21T07:40:02;98599.56;;;26.19;70.37
9187;BME280;7273;48.902;9.410;2023-08-21T07:42:27;98604.81;;;26.24;70.14
9187;BME280;7273;48.902;9.410;2023-08-21T07:44:53;98604.59;;;26.32;69.94
9187;BME280;7273;48.902;9.410;2023-08-21T07:47:18;98616.66;;;26.40;70.02
9187;BME280;7273;48.902;9.410;2023-08-21T07:49:44;98607.53;;;26.39;69.78
9187;BME280;7273;48.902;9.410;2023-08-21T07:52:09;98613.16;;;26.43;69.46
9187;BME280;7273;48.902;9.410;2023-08-21T07:54:34;98609.63;;;26.46;69.82
9187;BME280;7273;48.902;9.410;2023-08-21T07:57:00;98618.97;;;26.57;69.61
9187;BME280;7273;48.902;9.410;2023-08-21T07:59:27;98614.53;;;26.53;69.77
9187;BME280;7273;48.902;9.410;2023-08-21T08:01:52;98617.84;;;26.62;69.67
9187;BME280;7273;48.902;9.410;2023-08-21T08:04:18;98614.50;;;26.72;69.66
9187;BME280;7273;48.902;9.410;2023-08-21T08:06:43;98621.38;;;26.78;69.71
9187;BME280;7273;48.902;9.410;2023-08-21T08:09:09;98613.16;;;26.85;69.53
9187;BME280;7273;48.902;9.410;2023-08-21T08:11:34;98614.63;;;27.01;69.24
9187;BME280;7273;48.902;9.410;2023-08-21T08:13:59;98614.03;;;27.11;69.29
9187;BME280;7273;48.902;9.410;2023-08-21T08:16:25;98622.91;;;27.20;69.24
9187;BME280;7273;48.902;9.410;2023-08-21T08:18:50;98618.00;;;27.33;69.02
9187;BME280;7273;48.902;9.410;2023-08-21T08:21:16;98618.31;;;27.54;68.47
9187;BME280;7273;48.902;9.410;2023-08-21T08:23:42;98616.47;;;27.65;68.40
9187;BME280;7273;48.902;9.410;2023-08-21T08:26:08;98613.91;;;27.79;68.10
9187;BME280;7273;48.902;9.410;2023-08-21T08:28:34;98616.06;;;27.89;68.17
9187;BME280;7273;48.902;9.410;2023-08-21T08:30:59;98615.81;;;28.01;67.83
9187;BME280;7273;48.902;9.410;2023-08-21T08:33:26;98614.41;;;28.14;67.54
9187;BME280;7273;48.902;9.410;2023-08-21T08:35:51;98614.69;;;28.06;67.92
9187;BME280;7273;48.902;9.410;2023-08-21T08:38:17;98618.50;;;28.24;67.67
9187;BME280;7273;48.902;9.410;2023-08-21T08:40:45;98614.22;;;28.30;67.82
9187;BME280;7273;48.902;9.410;2023-08-21T08:43:11;98614.25;;;28.33;68.48
9187;BME280;7273;48.902;9.410;2023-08-21T08:45:37;98618.22;;;28.32;67.78
9187;BME280;7273;48.902;9.410;2023-08-21T08:48:04;98606.75;;;28.37;67.77
9187;BME280;7273;48.902;9.410;2023-08-21T08:50:31;98613.47;;;28.33;68.00
9187;BME280;7273;48.902;9.410;2023-08-21T08:52:58;98607.34;;;28.53;67.73
9187;BME280;7273;48.902;9.410;2023-08-21T08:55:25;98604.81;;;28.45;67.92
9187;BME280;7273;48.902;9.410;2023-08-21T08:57:52;98606.75;;;28.37;67.88
9187;BME280;7273;48.902;9.410;2023-08-21T09:00:17;98604.81;;;28.45;67.75
9187;BME280;7273;48.902;9.410;2023-08-21T09:02:43;98612.19;;;28.60;67.32
9187;BME280;7273;48.902;9.410;2023-08-21T09:05:09;98609.91;;;28.69;67.48
9187;BME280;7273;48.902;9.410;2023-08-21T09:07:35;98612.56;;;28.58;67.47
9187;BME280;7273;48.902;9.410;2023-08-21T09:10:02;98609.34;;;28.53;67.44
9187;BME280;7273;48.902;9.410;2023-08-21T09:12:31;98605.50;;;28.68;67.25
9187;BME280;7273;48.902;9.410;2023-08-21T09:14:58;98607.91;;;28.69;67.21
9187;BME280;7273;48.902;9.410;2023-08-21T09:17:25;98609.28;;;28.86;66.88
9187;BME280;7273;48.902;9.410;2023-08-21T09:19:51;98610.47;;;28.85;66.93
9187;BME280;7273;48.902;9.410;2023-08-21T09:22:17;98604.28;;;29.02;66.30
9187;BME280;7273;48.902;9.410;2023-08-21T09:27:25;98603.66;;;29.23;66.12
9187;BME280;7273;48.902;9.410;2023-08-21T09:29:51;98605.81;;;29.43;65.79
9187;BME280;7273;48.902;9.410;2023-08-21T09:32:16;98602.72;;;29.55;65.70
9187;BME280;7273;48.902;9.410;2023-08-21T09:34:42;98603.22;;;29.68;65.56
9187;BME280;7273;48.902;9.410;2023-08-21T09:37:09;98608.09;;;29.85;64.96
9187;BME280;7273;48.902;9.410;2023-08-21T09:39:36;98609.34;;;29.94;64.60
9187;BME280;7273;48.902;9.410;2023-08-21T09:42:08;98602.97;;;29.90;64.86
9187;BME280;7273;48.902;9.410;2023-08-21T09:44:40;98604.22;;;30.00;64.38
9187;BME280;7273;48.902;9.410;2023-08-21T09:47:10;98601.84;;;30.12;64.48
9187;BME280;7273;48.902;9.410;2023-08-21T09:49:37;98601.94;;;30.27;64.05
9187;BME280;7273;48.902;9.410;2023-08-21T09:52:06;98603.16;;;30.29;63.76
9187;BME280;7273;48.902;9.410;2023-08-21T09:54:33;98600.81;;;30.42;63.90
9187;BME280;7273;48.902;9.410;2023-08-21T09:57:03;98602.03;;;30.44;63.09
9187;BME280;7273;48.902;9.410;2023-08-21T09:59:29;98598.88;;;30.53;63.35
9187;BME280;7273;48.902;9.410;2023-08-21T10:01:58;98606.84;;;30.61;63.17
9187;BME280;7273;48.902;9.410;2023-08-21T10:04:25;98598.09;;;30.70;63.06
9187;BME280;7273;48.902;9.410;2023-08-21T10:06:51;98590.50;;;30.70;62.93
9187;BME280;7273;48.902;9.410;2023-08-21T10:09:20;98594.47;;;30.69;63.11
9187;BME280;7273;48.902;9.410;2023-08-21T10:11:47;98599.31;;;30.79;62.55
9187;BME280;7273;48.902;9.410;2023-08-21T10:14:13;98594.16;;;30.81;62.55
9187;BME280;7273;48.902;9.410;2023-08-21T10:16:39;98586.56;;;30.85;61.93
9187;BME280;7273;48.902;9.410;2023-08-21T10:19:06;98582.19;;;30.98;61.98
9187;BME280;7273;48.902;9.410;2023-08-21T10:21:35;98584.59;;;31.14;61.90
9187;BME280;7273;48.902;9.410;2023-08-21T10:24:02;98578.59;;;31.22;61.73
9187;BME280;7273;48.902;9.410;2023-08-21T10:26:27;98583.41;;;31.36;61.69
9187;BME280;7273;48.902;9.410;2023-08-21T10:28:59;98569.41;;;31.25;61.32
9187;BME280;7273;48.902;9.410;2023-08-21T10:31:34;98576.22;;;31.35;61.01
9187;BME280;7273;48.902;9.410;2023-08-21T10:34:08;98576.63;;;31.44;60.99
9187;BME280;7273;48.902;9.410;2023-08-21T10:39:27;98571.03;;;31.37;61.67
9187;BME280;7273;48.902;9.410;2023-08-21T10:42:05;98567.41;;;31.51;61.09
9187;BME280;7273;48.902;9.410;2023-08-21T10:47:20;98568.59;;;31.60;59.82
9187;BME280;7273;48.902;9.410;2023-08-21T10:49:47;98562.94;;;31.74;60.83
9187;BME280;7273;48.902;9.410;2023-08-21T10:52:13;98561.72;;;31.93;60.37
9187;BME280;7273;48.902;9.410;2023-08-21T10:54:50;98562.88;;;32.06;60.02
9187;BME280;7273;48.902;9.410;2023-08-21T10:57:16;98567.59;;;32.23;59.93
9187;BME280;7273;48.902;9.410;2023-08-21T11:00:01;98565.94;;;32.36;59.12
9187;BME280;7273;48.902;9.410;2023-08-21T11:02:30;98556.19;;;32.61;59.18
9187;BME280;7273;48.902;9.410;2023-08-21T11:04:55;98565.00;;;32.60;59.26
9187;BME280;7273;48.902;9.410;2023-08-21T11:07:21;98553.84;;;32.53;58.86
9187;BME280;7273;48.902;9.410;2023-08-21T11:09:48;98552.84;;;32.81;58.17
9187;BME280;7273;48.902;9.410;2023-08-21T11:12:18;98559.03;;;33.16;57.13
9187;BME280;7273;48.902;9.410;2023-08-21T11:14:44;98560.38;;;33.82;56.58
9187;BME280;7273;48.902;9.410;2023-08-21T11:17:10;98565.03;;;34.30;56.18
9187;BME280;7273;48.902;9.410;2023-08-21T11:19:37;98558.41;;;35.00;55.51
9187;BME280;7273;48.902;9.410;2023-08-21T11:22:03;98567.78;;;35.63;55.28
9187;BME280;7273;48.902;9.410;2023-08-21T11:24:43;98571.09;;;36.39;53.47
9187;BME280;7273;48.902;9.410;2023-08-21T11:27:10;98572.22;;;36.81;54.51
9187;BME280;7273;48.902;9.410;2023-08-21T11:29:50;98566.31;;;37.56;52.09
9187;BME280;7273;48.902;9.410;2023-08-21T11:32:21;98566.88;;;38.08;53.39
9187;BME280;7273;48.902;9.410;2023-08-21T11:34:51;98568.19;;;38.61;52.65
9187;BME280;7273;48.902;9.410;2023-08-21T11:37:18;98563.56;;;39.05;52.84
9187;BME280;7273;48.902;9.410;2023-08-21T11:39:49;98565.78;;;39.22;51.79
9187;BME280;7273;48.902;9.410;2023-08-21T11:42:15;98556.59;;;39.77;51.65
9187;BME280;7273;48.902;9.410;2023-08-21T11:44:49;98557.63;;;39.24;50.92
9187;BME280;7273;48.902;9.410;2023-08-21T11:47:16;98555.03;;;39.17;52.71
9187;BME280;7273;48.902;9.410;2023-08-21T11:49:43;98555.06;;;39.64;51.90
9187;BME280;7273;48.902;9.410;2023-08-21T11:52:09;98554.25;;;39.63;51.78
9187;BME280;7273;48.902;9.410;2023-08-21T11:54:36;98548.28;;;39.83;51.33
9187;BME280;7273;48.902;9.410;2023-08-21T11:57:06;98560.53;;;40.36;49.57
9187;BME280;7273;48.902;9.410;2023-08-21T11:59:32;98557.16;;;40.06;51.13
9187;BME280;7273;48.902;9.410;2023-08-21T12:01:58;98554.53;;;40.34;50.49
9187;BME280;7273;48.902;9.410;2023-08-21T12:04:24;98558.88;;;40.78;49.46
9187;BME280;7273;48.902;9.410;2023-08-21T12:06:50;98555.69;;;41.06;49.18
9187;BME280;7273;48.902;9.410;2023-08-21T12:09:15;98556.31;;;41.10;49.11
9187;BME280;7273;48.902;9.410;2023-08-21T12:11:41;98552.25;;;40.72;49.60
9187;BME280;7273;48.902;9.410;2023-08-21T12:14:06;98549.94;;;40.58;49.43
9187;BME280;7273;48.902;9.410;2023-08-21T12:16:32;98553.38;;;40.53;48.83
9187;BME280;7273;48.902;9.410;2023-08-21T12:18:58;98556.81;;;40.26;48.77
9187;BME280;7273;48.902;9.410;2023-08-21T12:21:27;98547.47;;;39.95;48.60
9187;BME280;7273;48.902;9.410;2023-08-21T12:23:52;98539.72;;;39.74;48.52
9187;BME280;7273;48.902;9.410;2023-08-21T12:26:18;98538.28;;;38.97;49.49
9187;BME280;7273;48.902;9.410;2023-08-21T12:28:49;98534.69;;;37.90;49.65
9187;BME280;7273;48.902;9.410;2023-08-21T12:31:15;98539.75;;;37.70;49.99
9187;BME280;7273;48.902;9.410;2023-08-21T12:33:41;98536.88;;;37.98;48.28
9187;BME280;7273;48.902;9.410;2023-08-21T12:36:06;98528.75;;;37.72;47.84
9187;BME280;7273;48.902;9.410;2023-08-21T12:38:34;98531.41;;;37.62;47.70
9187;BME280;7273;48.902;9.410;2023-08-21T12:41:03;98523.19;;;37.39;47.20
9187;BME280;7273;48.902;9.410;2023-08-21T12:43:30;98520.72;;;37.41;46.79
9187;BME280;7273;48.902;9.410;2023-08-21T12:45:56;98522.22;;;37.30;46.60
9187;BME280;7273;48.902;9.410;2023-08-21T12:48:22;98515.50;;;37.08;46.72
9187;BME280;7273;48.902;9.410;2023-08-21T12:50:47;98523.91;;;36.79;46.85
9187;BME280;7273;48.902;9.410;2023-08-21T12:53:13;98524.28;;;36.62;47.04
9187;BME280;7273;48.902;9.410;2023-08-21T12:55:38;98525.28;;;36.16;47.44
9187;BME280;7273;48.902;9.410;2023-08-21T12:58:04;98511.97;;;35.58;47.47
9187;BME280;7273;48.902;9.410;2023-08-21T13:00:30;98515.13;;;35.17;47.59
9187;BME280;7273;48.902;9.410;2023-08-21T13:02:57;98513.59;;;35.12;47.46
9187;BME280;7273;48.902;9.410;2023-08-21T13:05:23;98507.59;;;35.10;47.09
9187;BME280;7273;48.902;9.410;2023-08-21T13:07:48;98503.44;;;34.95;47.26
9187;BME280;7273;48.902;9.410;2023-08-21T13:10:14;98505.41;;;34.98;47.23
9187;BME280;7273;48.902;9.410;2023-08-21T13:12:39;98510.09;;;35.05;46.87
9187;BME280;7273;48.902;9.410;2023-08-21T13:15:05;98503.38;;;34.99;46.89
9187;BME280;7273;48.902;9.410;2023-08-21T13:17:33;98503.44;;;34.95;46.84
9187;BME280;7273;48.902;9.410;2023-08-21T13:19:58;98507.50;;;34.94;46.71
9187;BME280;7273;48.902;9.410;2023-08-21T13:22:24;98499.53;;;34.89;46.82
9187;BME280;7273;48.902;9.410;2023-08-21T13:24:49;98496.44;;;34.80;46.62
9187;BME280;7273;48.902;9.410;2023-08-21T13:27:15;98492.31;;;34.85;46.31